Extreme weather reports worldwide

High gusts

Station
 
Location
 
Name
 
Wind
Knots
Gust
Knots
Vis
SM
Temp/Dew
C
Baro
inHg
METAR
 
KMWN 71 77 0.06 -28/-28 KMWN 182156Z 29071G77KT 1/16SM FZFG BLSN VV002 M28/M28 RMK PK WND 25092/03 FZFG INTMT VRY LGT ICG
FDBB 30 65 21/21 29.91 FDBB 182200Z AUTO 31030G65KT //// // ////// 21/21 Q1013
SKN ENSK Hadsel, NO Stokmarknes Skagen Airport 34 49 2.49 6/3 29.08 ENSK 182150Z 25034G49KT 4000 +RA FEW010 SCT015 BKN022 06/03 Q0985
EVE ENEV Evenes, NO Harstad/Narvik Airport, Evenes 26 48 6.21 6/4 29.08 ENEV 182220Z 23026G48KT 190V270 9999 -RA BKN011 06/04 Q0985 RMK WIND 1400FT 24052G79KT
BIS KBIS Bismarck, US Bismarck Municipal Airport 26 46 10 -13/-18 30.00 KBIS 182152Z 32026G46KT 10SM SCT022 M14/M19 A3000 RMK AO2 PK WND 32046/2143 SLP186 T11391189 $

Station
 
Location
 
Name
 
Wind
Knots
Gust
Knots
Vis
SM
Temp/Dew
C
Baro
inHg
METAR
 
SYA PASY Shemya, US Eareckson Air Station 36 46 7 4/2 29.00 PASY 182157Z 06036G46KT 7SM BKN015 OVC024 04/03 A2900 RMK AO2A PK WND 06046/49 BKN V OVC SLP821 WND DATA ESTMD T00420025 PNO FZRANO $
YYT CYYT St. John's, CA St. John's International Airport 28 46 1 3/3 29.38 CYYT 182205Z 17028G46KT 1SM R16/P6000FT/N RA BR OVC004 03/03 A2938 RMK FG4NS4 SLP956
BOO ENBO Bodø, NO Bodø Airport 35 46 6.21 7/5 29.26 ENBO 182220Z 23035G46KT 9999 -SHRA FEW009 SCT016 BKN021 07/05 Q0991
KN60 34 43 -17/-20 29.96 KN60 182152Z AUTO 32034G43KT M17/M20 A2996 RMK AO1 PK WND 32058/2115 SLP183 T11721200
MOT KMOT Minot, US Minot International Airport 33 43 0.25 -18/-22 29.98 KMOT 182207Z 29033G43KT 1/4SM BLSN VV007 M18/M22 A2998 RMK AO2 PK WND 29043/2205 T11831222
KMOX Morris, US Morris Municipal - Charlie Schmidt Airport 34 43 10 -7/-11 29.71 KMOX 182215Z AUTO 32034G43KT 10SM OVC015 M07/M11 A2971 RMK AO2
KD07 28 42 -5/-11 29.92 KD07 182156Z AUTO 33028G42KT M05/M12 A2992 RMK AO1 PK WND 34042/2149 SLP159 T10501117
KJYG St James, US St James Municipal Airport 26 42 10 1/-2 29.64 KJYG 182215Z AUTO 31026G42KT 10SM OVC016 01/M02 A2964 RMK AO2
RVK ENRM Rørvik, NO Rørvik Airport, Ryum 31 41 4.97 7/7 29.56 ENRM 182150Z 23031G41KT 8000 RA BKN009 07/07 Q1001
MIB KMIB Minot, US Minot Air Force Base 32 41 0.38 -20/-23 29.97 KMIB 182156Z 33032G41KT 3/8SM R12/2200V2600FT BLSN SCT009 M20/M24 A2997 RMK PK WND 34041/04 SLP191 P0000 T12011239 $
CWQV 31 41 -19/-23 CWQV 182200Z AUTO 28031G41KT M19/M24 RMK AO1 PK WND 28045/2147 T11901235
CWSF 26 41 -7/-8 CWSF 182200Z AUTO 28026G41KT M07/M08 RMK AO1 SOG 01 1034 PK WND 26041/2141 SLP885 T10711082
JMS KJMS Jamestown, US Jamestown Regional Airport 30 41 0.5 -15/-18 29.83 KJMS 182219Z AUTO 31030G41KT 1/2SM UP BKN010 OVC017 M15/M18 A2983 RMK AO2 PK WND 31048/2204 P0000 T11501183
CWOB 32 40 -16/-18 29.13 CWOB 182200Z AUTO 04032G40KT ////SM OVC004 M16/M18 A2913
KY19 28 40 9 -15/-20 29.98 KY19 182215Z AUTO 32028G40KT 9SM SCT015 M15/M20 A2998 RMK AO2
AXN KAXN Alexandria, US Chandler Field 25 40 1.5 -8/-10 29.64 KAXN 182220Z AUTO 30025G40KT 1 1/2SM -SN BR OVC014 M08/M11 A2964 RMK AO2 PK WND 31040/2211 SNB13 P0000 T10831106
KJKJ Moorhead, US Moorhead Municipal Airport 29 39 1 -12/-15 29.78 KJKJ 182215Z AUTO 32029G39KT 1SM HZ OVC020 M12/M15 A2978 RMK AO2
ANX ENAN Andenes, NO Andøya Airport 25 39 6.21 6/4 29.00 ENAN 182220Z 26025G39KT 230V310 9999 -RA FEW004 BKN029 06/04 Q0982
ABR KABR Aberdeen, US Aberdeen Regional Airport 25 38 10 -6/-12 29.86 KABR 182153Z AUTO 32025G38KT 10SM CLR M07/M12 A2986 RMK AO2 PK WND 32041/2130 SLP129 T10671122
ATY KATY Watertown, US Watertown Regional Airport 23 38 10 -3/-7 29.73 KATY 182153Z AUTO 32023G38KT 10SM OVC016 M04/M07 A2973 RMK AO2 PK WND 32038/2151 SLP092 T10391072
K8D3 28 38 -6/-10 29.76 K8D3 182156Z AUTO 32028G38KT M07/M11 A2976 RMK AO1 PK WND 33049/2107 SLP101 T10671106
LTK OSLK Latakia, SY Bassel Al-Assad International Airport 23 38 3.11 12/11 29.82 OSLK 182200Z 19023G38KT 5000 SHRA FEW025 CB BKN030 BKN100 12/11 Q1010
USH SAWH Ushuahia, AR Malvinas Argentinas Airport 28 38 6.21 10/7 29.88 SAWH 182200Z 23028G38KT 9999 VCSH FEW035 BKN045 10/07 Q1012
KAQP Appleton, US Appleton Municipal Airport 24 38 10 -5/-9 29.73 KAQP 182213Z AUTO 31024G38KT 10SM OVC017 M05/M09 A2973 RMK AO2
K5H4 31 38 0.25 -19/-21 29.93 K5H4 182215Z AUTO 31031G38KT 1/4SM -SN SCT008 BKN013 M19/M21 A2993 RMK AO2
KBDH 32 38 10 -3/-7 29.68 KBDH 182215Z 32032G38KT 10SM M03/M07 A2968 RMK AO2
CWSA 32 38 6 4/1 29.36 CWSA 182223Z AUTO 24032G38KT 6SM HZ FEW026 BKN035 04/01 A2936 RMK SLP945
KHEI Hettinger, US Hettinger Municipal Airport 26 37 10 -9/-16 29.97 KHEI 182153Z AUTO 32026G37KT 10SM CLR M09/M16 A2997 RMK AO2 PK WND 32040/2124 SLP179 T10941161
SPW KSPW Spencer, US Spencer Municipal Airport 19 37 10 5/0 29.66 KSPW 182200Z AUTO 32019G37KT 10SM BKN022 05/00 A2966 RMK AO2 PK WND 31034/2154 T00500000
K2D5 29 37 0.25 -12/-13 29.84 K2D5 182215Z AUTO 32029G37KT M1/4SM -SN BKN003 BKN008 OVC014 M12/M13 A2984 RMK AO2
K46D 28 37 0.25 -16/-18 29.89 K46D 182215Z AUTO 31028G37KT M1/4SM -SN OVC001 M16/M18 A2989 RMK AO2
K7L2 29 37 10 -12/-17 29.99 K7L2 182215Z AUTO 32029G37KT 10SM FEW019 M12/M17 A2999 RMK AO2
KCNB Canby, US Myers Field 29 37 10 -2/-7 29.76 KCNB 182215Z AUTO 28029G37KT 10SM SCT020 SCT024 M02/M07 A2976 RMK AO2 T10251071
KGWR Gwinner, US Gwinner Roger Melroe Field 26 37 0.5 -11/-11 29.82 KGWR 182215Z AUTO 32026G37KT 1/2SM FZFG BKN008 OVC013 M11/M11 A2982 RMK A01
KLJF Litchfield, US Litchfield Municipal Airport 21 37 10 -1/-8 29.59 KLJF 182215Z AUTO 31021G37KT 10SM SCT019 M01/M08 A2959 RMK AO2
ULM KULM New Ulm, US New Ulm Municipal Airport 28 37 10 1/-2 29.63 KULM 182215Z AUTO 31028G37KT 10SM OVC014 01/M02 A2963 RMK AO2
PIR KPIR Pierre, US Pierre Regional Airport 22 36 10 0/-9 29.88 KPIR 182153Z AUTO 34022G36KT 10SM CLR 00/M09 A2988 RMK AO2 PK WND 34038/2120 SLP133 T00001094
PKD KPKD Park Rapids, US Park Rapids Municipal Konshok Field 24 36 0.5 -7/-11 29.55 KPKD 182153Z AUTO 30024G36KT 1/2SM SN BKN016 OVC021 M08/M11 A2955 RMK AO2 PK WND 31036/2137 SNB14 PRESRR SLP027 P0000 T10781111
K2WX 27 36 -7/-13 29.96 K2WX 182156Z AUTO 32027G36KT M08/M14 A2996 RMK AO1 PK WND 33038/2058 SLP178 T10781139
KMKT Mankato, US Mankato Regional Airport 23 36 10 2/-1 29.59 KMKT 182156Z AUTO 30023G36KT 10SM BKN014 BKN022 02/M01 A2959 RMK AO2 PK WND 30036/2152 PRESRR SLP034 T00221011 FZRANO
MML KMML Marshall, US Southwest Minnesota Regional Airport - Marshall/Ryan Field 27 36 10 0/-3 29.69 KMML 182156Z AUTO 33027G36KT 10SM OVC019 00/M03 A2969 RMK AO2 PK WND 32039/2119 SLP070 T00001033 FZRANO
DBV LDDU Dubrovnik, HR Dubrovnik Airport 23 36 6.21 6/-12 30.44 LDDU 182200Z 02023G36KT 310V080 CAVOK 06/M12 Q1031
CZF PACZ Cape Romanzof, US Cape Romanzof LRRS Airport 27 36 0.5 -17/-20 29.90 PACZ 182207Z AUTO 07027G36KT 1/2SM -SN FZFG VV002 M17/M20 A2990 RMK AO2 SLP145
KBAC 27 36 0.25 -14/-15 29.81 KBAC 182215Z AUTO 32027G36KT M1/4SM +SN FZFG BKN003 BKN007 OVC019 M14/M15 A2981 RMK AO2
KGHW Glenwood, US Glenwood Municipal Airport 29 36 4 -7/-9 29.64 KGHW 182215Z AUTO 29029G36KT 4SM BR OVC013 M07/M09 A2964 RMK AO2